sensor_id;sensor_type;location;lat;lon;timestamp;P1;durP1;ratioP1;P2;durP2;ratioP2
78116;SDS011;69042;59.120;37.904;2023-04-25T00:01:21;7.43;;;4.45;;
78116;SDS011;69042;59.120;37.904;2023-04-25T00:03:50;7.53;;;4.32;;
78116;SDS011;69042;59.120;37.904;2023-04-25T00:06:16;8.07;;;4.68;;
78116;SDS011;69042;59.120;37.904;2023-04-25T00:08:43;9.15;;;5.05;;
78116;SDS011;69042;59.120;37.904;2023-04-25T00:11:09;8.93;;;5.65;;
78116;SDS011;69042;59.120;37.904;2023-04-25T00:13:36;8.90;;;4.60;;
78116;SDS011;69042;59.120;37.904;2023-04-25T00:16:02;10.43;;;5.38;;
78116;SDS011;69042;59.120;37.904;2023-04-25T00:18:28;9.90;;;5.03;;
78116;SDS011;69042;59.120;37.904;2023-04-25T00:20:55;9.65;;;4.80;;
78116;SDS011;69042;59.120;37.904;2023-04-25T00:23:21;11.48;;;4.53;;
78116;SDS011;69042;59.120;37.904;2023-04-25T00:25:48;9.75;;;5.32;;
78116;SDS011;69042;59.120;37.904;2023-04-25T00:28:15;10.15;;;6.13;;
78116;SDS011;69042;59.120;37.904;2023-04-25T00:30:42;10.23;;;6.32;;
78116;SDS011;69042;59.120;37.904;2023-04-25T00:33:09;13.40;;;6.50;;
78116;SDS011;69042;59.120;37.904;2023-04-25T00:35:36;11.35;;;5.78;;
78116;SDS011;69042;59.120;37.904;2023-04-25T00:38:02;10.70;;;4.30;;
78116;SDS011;69042;59.120;37.904;2023-04-25T00:40:28;9.48;;;4.80;;
78116;SDS011;69042;59.120;37.904;2023-04-25T00:42:54;9.18;;;4.85;;
78116;SDS011;69042;59.120;37.904;2023-04-25T00:45:21;7.53;;;4.28;;
78116;SDS011;69042;59.120;37.904;2023-04-25T00:47:47;8.95;;;4.88;;
78116;SDS011;69042;59.120;37.904;2023-04-25T00:53:06;11.30;;;4.78;;
78116;SDS011;69042;59.120;37.904;2023-04-25T00:55:32;10.25;;;5.95;;
78116;SDS011;69042;59.120;37.904;2023-04-25T00:58:01;10.75;;;6.65;;
78116;SDS011;69042;59.120;37.904;2023-04-25T01:00:28;11.27;;;6.10;;
78116;SDS011;69042;59.120;37.904;2023-04-25T01:02:54;11.85;;;6.18;;
78116;SDS011;69042;59.120;37.904;2023-04-25T01:05:20;10.63;;;5.32;;
78116;SDS011;69042;59.120;37.904;2023-04-25T01:07:47;9.80;;;5.55;;
78116;SDS011;69042;59.120;37.904;2023-04-25T01:10:13;10.00;;;6.53;;
78116;SDS011;69042;59.120;37.904;2023-04-25T01:12:40;16.02;;;8.25;;
78116;SDS011;69042;59.120;37.904;2023-04-25T01:15:07;11.43;;;6.47;;
78116;SDS011;69042;59.120;37.904;2023-04-25T01:17:34;11.63;;;5.72;;
78116;SDS011;69042;59.120;37.904;2023-04-25T01:20:04;8.90;;;5.28;;
78116;SDS011;69042;59.120;37.904;2023-04-25T01:22:31;11.50;;;5.30;;
78116;SDS011;69042;59.120;37.904;2023-04-25T01:24:58;10.88;;;6.20;;
78116;SDS011;69042;59.120;37.904;2023-04-25T01:27:26;10.02;;;6.40;;
78116;SDS011;69042;59.120;37.904;2023-04-25T01:29:54;8.88;;;5.45;;
78116;SDS011;69042;59.120;37.904;2023-04-25T01:32:21;9.27;;;5.40;;
78116;SDS011;69042;59.120;37.904;2023-04-25T01:34:48;9.40;;;5.40;;
78116;SDS011;69042;59.120;37.904;2023-04-25T01:37:16;10.02;;;4.97;;
78116;SDS011;69042;59.120;37.904;2023-04-25T01:39:44;9.60;;;5.13;;
78116;SDS011;69042;59.120;37.904;2023-04-25T01:42:11;9.60;;;5.40;;
78116;SDS011;69042;59.120;37.904;2023-04-25T01:44:38;9.68;;;4.70;;
78116;SDS011;69042;59.120;37.904;2023-04-25T01:47:05;10.20;;;5.80;;
78116;SDS011;69042;59.120;37.904;2023-04-25T01:49:31;9.65;;;6.35;;
78116;SDS011;69042;59.120;37.904;2023-04-25T01:51:58;13.25;;;7.20;;
78116;SDS011;69042;59.120;37.904;2023-04-25T01:54:24;24.17;;;7.25;;
78116;SDS011;69042;59.120;37.904;2023-04-25T01:56:50;11.98;;;6.57;;
78116;SDS011;69042;59.120;37.904;2023-04-25T01:59:18;15.65;;;6.60;;
78116;SDS011;69042;59.120;37.904;2023-04-25T02:02:07;10.18;;;5.43;;
78116;SDS011;69042;59.120;37.904;2023-04-25T02:04:35;9.60;;;5.40;;
78116;SDS011;69042;59.120;37.904;2023-04-25T02:07:01;10.75;;;5.40;;
78116;SDS011;69042;59.120;37.904;2023-04-25T02:09:38;12.15;;;6.22;;
78116;SDS011;69042;59.120;37.904;2023-04-25T02:12:07;18.60;;;6.13;;
78116;SDS011;69042;59.120;37.904;2023-04-25T02:14:53;14.07;;;5.93;;
78116;SDS011;69042;59.120;37.904;2023-04-25T02:17:37;10.65;;;5.57;;
78116;SDS011;69042;59.120;37.904;2023-04-25T02:20:04;14.15;;;6.03;;
78116;SDS011;69042;59.120;37.904;2023-04-25T02:22:31;11.30;;;5.82;;
78116;SDS011;69042;59.120;37.904;2023-04-25T02:24:57;10.73;;;5.35;;
78116;SDS011;69042;59.120;37.904;2023-04-25T02:27:23;13.38;;;5.40;;
78116;SDS011;69042;59.120;37.904;2023-04-25T02:29:49;11.20;;;5.70;;
78116;SDS011;69042;59.120;37.904;2023-04-25T02:32:15;12.48;;;5.72;;
78116;SDS011;69042;59.120;37.904;2023-04-25T02:34:41;11.88;;;5.80;;
78116;SDS011;69042;59.120;37.904;2023-04-25T02:37:07;10.02;;;5.40;;
78116;SDS011;69042;59.120;37.904;2023-04-25T02:39:33;11.10;;;4.57;;
78116;SDS011;69042;59.120;37.904;2023-04-25T02:42:00;12.30;;;5.15;;
78116;SDS011;69042;59.120;37.904;2023-04-25T02:44:29;11.18;;;5.28;;
78116;SDS011;69042;59.120;37.904;2023-04-25T02:46:55;11.48;;;5.32;;
78116;SDS011;69042;59.120;37.904;2023-04-25T02:49:23;11.60;;;4.60;;
78116;SDS011;69042;59.120;37.904;2023-04-25T02:51:49;8.30;;;5.00;;
78116;SDS011;69042;59.120;37.904;2023-04-25T02:54:15;10.38;;;4.88;;
78116;SDS011;69042;59.120;37.904;2023-04-25T02:56:45;13.20;;;4.97;;
78116;SDS011;69042;59.120;37.904;2023-04-25T02:59:17;14.15;;;6.00;;
78116;SDS011;69042;59.120;37.904;2023-04-25T03:01:43;11.55;;;5.68;;
78116;SDS011;69042;59.120;37.904;2023-04-25T03:04:09;15.52;;;5.13;;
78116;SDS011;69042;59.120;37.904;2023-04-25T03:06:35;13.95;;;4.95;;
78116;SDS011;69042;59.120;37.904;2023-04-25T03:09:01;11.07;;;5.40;;
78116;SDS011;69042;59.120;37.904;2023-04-25T03:11:28;11.52;;;5.68;;
78116;SDS011;69042;59.120;37.904;2023-04-25T03:13:54;11.13;;;5.50;;
78116;SDS011;69042;59.120;37.904;2023-04-25T03:16:21;11.52;;;5.60;;
78116;SDS011;69042;59.120;37.904;2023-04-25T03:18:49;15.10;;;6.78;;
78116;SDS011;69042;59.120;37.904;2023-04-25T03:21:16;14.75;;;5.68;;
78116;SDS011;69042;59.120;37.904;2023-04-25T03:23:43;16.50;;;6.10;;
78116;SDS011;69042;59.120;37.904;2023-04-25T03:26:09;12.63;;;6.00;;
78116;SDS011;69042;59.120;37.904;2023-04-25T03:28:35;11.35;;;6.40;;
78116;SDS011;69042;59.120;37.904;2023-04-25T03:31:01;12.70;;;5.63;;
78116;SDS011;69042;59.120;37.904;2023-04-25T03:33:27;10.10;;;5.30;;
78116;SDS011;69042;59.120;37.904;2023-04-25T03:35:54;13.00;;;5.13;;
78116;SDS011;69042;59.120;37.904;2023-04-25T03:38:20;14.50;;;5.05;;
78116;SDS011;69042;59.120;37.904;2023-04-25T03:40:46;13.80;;;5.75;;
78116;SDS011;69042;59.120;37.904;2023-04-25T03:43:18;12.30;;;5.78;;
78116;SDS011;69042;59.120;37.904;2023-04-25T03:45:50;12.13;;;5.70;;
78116;SDS011;69042;59.120;37.904;2023-04-25T03:48:19;10.90;;;5.43;;
78116;SDS011;69042;59.120;37.904;2023-04-25T03:53:14;11.52;;;5.43;;
78116;SDS011;69042;59.120;37.904;2023-04-25T03:56:00;12.93;;;5.70;;
78116;SDS011;69042;59.120;37.904;2023-04-25T03:58:26;16.00;;;6.63;;
78116;SDS011;69042;59.120;37.904;2023-04-25T04:00:52;11.38;;;5.88;;
78116;SDS011;69042;59.120;37.904;2023-04-25T04:03:18;13.80;;;5.63;;
78116;SDS011;69042;59.120;37.904;2023-04-25T04:05:45;18.17;;;5.85;;
78116;SDS011;69042;59.120;37.904;2023-04-25T04:08:11;9.35;;;5.28;;
78116;SDS011;69042;59.120;37.904;2023-04-25T04:10:39;14.35;;;6.00;;
78116;SDS011;69042;59.120;37.904;2023-04-25T04:13:05;12.23;;;5.30;;
78116;SDS011;69042;59.120;37.904;2023-04-25T04:15:32;14.18;;;6.10;;
78116;SDS011;69042;59.120;37.904;2023-04-25T04:17:58;12.13;;;5.80;;
78116;SDS011;69042;59.120;37.904;2023-04-25T04:20:28;12.13;;;5.95;;
78116;SDS011;69042;59.120;37.904;2023-04-25T04:22:56;13.45;;;5.90;;
78116;SDS011;69042;59.120;37.904;2023-04-25T04:25:23;13.90;;;5.88;;
78116;SDS011;69042;59.120;37.904;2023-04-25T04:28:13;17.25;;;5.97;;
78116;SDS011;69042;59.120;37.904;2023-04-25T04:30:54;12.95;;;5.78;;
78116;SDS011;69042;59.120;37.904;2023-04-25T04:33:21;13.52;;;6.70;;
78116;SDS011;69042;59.120;37.904;2023-04-25T04:35:55;13.93;;;6.03;;
78116;SDS011;69042;59.120;37.904;2023-04-25T04:38:21;18.90;;;6.22;;
78116;SDS011;69042;59.120;37.904;2023-04-25T04:40:48;18.00;;;7.10;;
78116;SDS011;69042;59.120;37.904;2023-04-25T04:46:09;14.98;;;6.38;;
78116;SDS011;69042;59.120;37.904;2023-04-25T04:48:54;13.20;;;7.32;;
78116;SDS011;69042;59.120;37.904;2023-04-25T04:51:57;21.65;;;6.78;;
78116;SDS011;69042;59.120;37.904;2023-04-25T04:54:44;19.25;;;6.07;;
78116;SDS011;69042;59.120;37.904;2023-04-25T04:57:17;13.38;;;6.20;;
78116;SDS011;69042;59.120;37.904;2023-04-25T05:00:02;18.73;;;6.53;;
78116;SDS011;69042;59.120;37.904;2023-04-25T05:02:54;15.20;;;6.70;;
78116;SDS011;69042;59.120;37.904;2023-04-25T05:05:39;20.02;;;6.20;;
78116;SDS011;69042;59.120;37.904;2023-04-25T05:08:35;16.08;;;6.57;;
78116;SDS011;69042;59.120;37.904;2023-04-25T05:11:25;19.40;;;5.97;;
78116;SDS011;69042;59.120;37.904;2023-04-25T05:14:23;19.80;;;6.30;;
78116;SDS011;69042;59.120;37.904;2023-04-25T05:17:22;20.60;;;7.25;;
78116;SDS011;69042;59.120;37.904;2023-04-25T05:20:18;14.35;;;6.20;;
78116;SDS011;69042;59.120;37.904;2023-04-25T05:23:10;16.92;;;6.25;;
78116;SDS011;69042;59.120;37.904;2023-04-25T05:25:49;18.63;;;6.45;;
78116;SDS011;69042;59.120;37.904;2023-04-25T05:28:33;16.85;;;6.50;;
78116;SDS011;69042;59.120;37.904;2023-04-25T05:31:18;15.23;;;5.85;;
78116;SDS011;69042;59.120;37.904;2023-04-25T05:34:08;14.25;;;6.25;;
78116;SDS011;69042;59.120;37.904;2023-04-25T05:36:54;20.23;;;6.32;;
78116;SDS011;69042;59.120;37.904;2023-04-25T05:39:21;11.73;;;6.15;;
78116;SDS011;69042;59.120;37.904;2023-04-25T05:42:22;13.20;;;6.10;;
78116;SDS011;69042;59.120;37.904;2023-04-25T05:45:07;12.60;;;6.10;;
78116;SDS011;69042;59.120;37.904;2023-04-25T05:47:49;11.80;;;6.20;;
78116;SDS011;69042;59.120;37.904;2023-04-25T05:50:23;19.42;;;7.15;;
78116;SDS011;69042;59.120;37.904;2023-04-25T05:53:00;13.52;;;5.72;;
78116;SDS011;69042;59.120;37.904;2023-04-25T05:55:32;14.57;;;6.35;;
78116;SDS011;69042;59.120;37.904;2023-04-25T05:58:00;10.95;;;6.05;;
78116;SDS011;69042;59.120;37.904;2023-04-25T06:00:27;13.68;;;6.25;;
78116;SDS011;69042;59.120;37.904;2023-04-25T06:02:54;16.88;;;7.03;;
78116;SDS011;69042;59.120;37.904;2023-04-25T06:05:20;18.98;;;7.40;;
78116;SDS011;69042;59.120;37.904;2023-04-25T06:07:47;18.17;;;6.63;;
78116;SDS011;69042;59.120;37.904;2023-04-25T06:10:13;13.98;;;6.38;;
78116;SDS011;69042;59.120;37.904;2023-04-25T06:12:41;17.23;;;6.72;;
78116;SDS011;69042;59.120;37.904;2023-04-25T06:15:08;13.93;;;6.32;;
78116;SDS011;69042;59.120;37.904;2023-04-25T06:17:35;20.35;;;6.95;;
78116;SDS011;69042;59.120;37.904;2023-04-25T06:20:02;16.05;;;6.95;;
78116;SDS011;69042;59.120;37.904;2023-04-25T06:22:29;25.80;;;6.53;;
78116;SDS011;69042;59.120;37.904;2023-04-25T06:24:57;18.80;;;6.70;;
78116;SDS011;69042;59.120;37.904;2023-04-25T06:27:29;13.90;;;6.40;;
78116;SDS011;69042;59.120;37.904;2023-04-25T06:29:56;15.98;;;7.55;;
78116;SDS011;69042;59.120;37.904;2023-04-25T06:32:22;17.48;;;6.72;;
78116;SDS011;69042;59.120;37.904;2023-04-25T06:34:48;18.60;;;6.88;;
78116;SDS011;69042;59.120;37.904;2023-04-25T06:37:15;13.73;;;6.35;;
78116;SDS011;69042;59.120;37.904;2023-04-25T06:39:41;12.77;;;6.97;;
78116;SDS011;69042;59.120;37.904;2023-04-25T06:42:08;17.33;;;7.15;;
78116;SDS011;69042;59.120;37.904;2023-04-25T06:44:56;17.55;;;6.95;;
78116;SDS011;69042;59.120;37.904;2023-04-25T06:47:23;14.48;;;6.68;;
78116;SDS011;69042;59.120;37.904;2023-04-25T06:49:49;16.05;;;6.70;;
78116;SDS011;69042;59.120;37.904;2023-04-25T06:52:16;16.27;;;6.30;;
78116;SDS011;69042;59.120;37.904;2023-04-25T06:54:44;16.20;;;6.32;;
78116;SDS011;69042;59.120;37.904;2023-04-25T06:57:33;11.63;;;6.00;;
78116;SDS011;69042;59.120;37.904;2023-04-25T07:02:40;13.10;;;6.65;;
78116;SDS011;69042;59.120;37.904;2023-04-25T07:05:09;14.00;;;6.75;;
78116;SDS011;69042;59.120;37.904;2023-04-25T07:07:35;13.50;;;6.50;;
78116;SDS011;69042;59.120;37.904;2023-04-25T07:10:01;18.15;;;6.53;;
78116;SDS011;69042;59.120;37.904;2023-04-25T07:12:28;11.10;;;6.20;;
78116;SDS011;69042;59.120;37.904;2023-04-25T07:14:54;16.13;;;6.65;;
78116;SDS011;69042;59.120;37.904;2023-04-25T07:17:20;13.77;;;6.10;;
78116;SDS011;69042;59.120;37.904;2023-04-25T07:19:47;13.95;;;6.57;;
78116;SDS011;69042;59.120;37.904;2023-04-25T07:22:13;16.77;;;7.35;;
78116;SDS011;69042;59.120;37.904;2023-04-25T07:34:25;11.27;;;6.00;;
78116;SDS011;69042;59.120;37.904;2023-04-25T07:36:53;29.45;;;7.90;;
78116;SDS011;69042;59.120;37.904;2023-04-25T07:39:20;14.15;;;6.68;;
78116;SDS011;69042;59.120;37.904;2023-04-25T07:41:47;13.30;;;6.18;;
78116;SDS011;69042;59.120;37.904;2023-04-25T07:44:19;11.88;;;6.10;;
78116;SDS011;69042;59.120;37.904;2023-04-25T07:46:45;12.02;;;6.65;;
78116;SDS011;69042;59.120;37.904;2023-04-25T07:49:12;14.27;;;6.70;;
78116;SDS011;69042;59.120;37.904;2023-04-25T07:51:39;14.02;;;7.00;;
78116;SDS011;69042;59.120;37.904;2023-04-25T07:54:12;13.13;;;6.28;;
78116;SDS011;69042;59.120;37.904;2023-04-25T07:56:45;11.48;;;6.60;;
78116;SDS011;69042;59.120;37.904;2023-04-25T07:59:12;13.13;;;6.45;;
78116;SDS011;69042;59.120;37.904;2023-04-25T09:02:26;14.63;;;6.50;;
78116;SDS011;69042;59.120;37.904;2023-04-25T09:04:53;11.60;;;5.90;;
78116;SDS011;69042;59.120;37.904;2023-04-25T09:07:21;17.50;;;8.25;;
78116;SDS011;69042;59.120;37.904;2023-04-25T09:09:47;12.93;;;6.22;;
78116;SDS011;69042;59.120;37.904;2023-04-25T09:12:20;13.20;;;6.43;;
78116;SDS011;69042;59.120;37.904;2023-04-25T09:15:09;10.75;;;6.40;;
78116;SDS011;69042;59.120;37.904;2023-04-25T09:20:24;9.75;;;6.07;;
78116;SDS011;69042;59.120;37.904;2023-04-25T09:23:03;13.80;;;6.35;;
78116;SDS011;69042;59.120;37.904;2023-04-25T09:25:34;13.38;;;6.13;;
78116;SDS011;69042;59.120;37.904;2023-04-25T09:28:06;12.13;;;6.20;;
78116;SDS011;69042;59.120;37.904;2023-04-25T09:30:34;10.55;;;6.85;;
78116;SDS011;69042;59.120;37.904;2023-04-25T09:33:07;19.85;;;6.90;;
78116;SDS011;69042;59.120;37.904;2023-04-25T09:35:41;16.45;;;6.80;;
78116;SDS011;69042;59.120;37.904;2023-04-25T09:38:14;13.73;;;7.00;;
78116;SDS011;69042;59.120;37.904;2023-04-25T09:40:47;9.48;;;5.90;;
78116;SDS011;69042;59.120;37.904;2023-04-25T09:43:34;10.00;;;6.00;;
78116;SDS011;69042;59.120;37.904;2023-04-25T09:46:00;11.00;;;6.22;;
78116;SDS011;69042;59.120;37.904;2023-04-25T09:48:29;12.02;;;6.35;;
78116;SDS011;69042;59.120;37.904;2023-04-25T09:51:09;13.77;;;6.90;;
78116;SDS011;69042;59.120;37.904;2023-04-25T09:53:38;16.17;;;7.10;;
78116;SDS011;69042;59.120;37.904;2023-04-25T09:56:28;18.75;;;7.80;;
78116;SDS011;69042;59.120;37.904;2023-04-25T09:59:03;10.60;;;5.82;;
78116;SDS011;69042;59.120;37.904;2023-04-25T10:01:32;14.25;;;6.47;;
78116;SDS011;69042;59.120;37.904;2023-04-25T10:04:10;12.63;;;6.45;;
78116;SDS011;69042;59.120;37.904;2023-04-25T10:06:46;14.15;;;6.55;;
78116;SDS011;69042;59.120;37.904;2023-04-25T10:09:19;18.90;;;7.30;;
78116;SDS011;69042;59.120;37.904;2023-04-25T10:11:46;11.45;;;6.25;;
78116;SDS011;69042;59.120;37.904;2023-04-25T10:14:16;13.50;;;6.50;;
78116;SDS011;69042;59.120;37.904;2023-04-25T10:16:43;16.98;;;6.68;;
78116;SDS011;69042;59.120;37.904;2023-04-25T10:19:11;12.43;;;6.47;;
78116;SDS011;69042;59.120;37.904;2023-04-25T10:21:40;11.77;;;6.07;;
78116;SDS011;69042;59.120;37.904;2023-04-25T10:24:14;11.77;;;6.55;;
78116;SDS011;69042;59.120;37.904;2023-04-25T10:26:41;18.25;;;6.90;;
78116;SDS011;69042;59.120;37.904;2023-04-25T10:29:07;12.40;;;6.25;;
78116;SDS011;69042;59.120;37.904;2023-04-25T10:31:38;12.68;;;6.57;;
78116;SDS011;69042;59.120;37.904;2023-04-25T10:34:10;13.20;;;6.30;;
78116;SDS011;69042;59.120;37.904;2023-04-25T10:36:37;11.82;;;6.45;;
78116;SDS011;69042;59.120;37.904;2023-04-25T10:39:06;10.52;;;6.05;;
78116;SDS011;69042;59.120;37.904;2023-04-25T10:41:47;10.88;;;6.35;;
78116;SDS011;69042;59.120;37.904;2023-04-25T10:44:17;13.32;;;6.10;;
78116;SDS011;69042;59.120;37.904;2023-04-25T10:46:44;12.90;;;6.43;;
78116;SDS011;69042;59.120;37.904;2023-04-25T10:49:28;13.40;;;6.40;;
78116;SDS011;69042;59.120;37.904;2023-04-25T10:52:14;11.65;;;5.93;;
78116;SDS011;69042;59.120;37.904;2023-04-25T10:54:52;12.45;;;6.35;;
78116;SDS011;69042;59.120;37.904;2023-04-25T11:02:36;10.77;;;5.85;;
78116;SDS011;69042;59.120;37.904;2023-04-25T11:05:02;16.25;;;6.32;;
78116;SDS011;69042;59.120;37.904;2023-04-25T11:10:13;9.82;;;5.93;;
78116;SDS011;69042;59.120;37.904;2023-04-25T11:12:40;16.95;;;6.38;;
78116;SDS011;69042;59.120;37.904;2023-04-25T11:15:06;13.15;;;5.97;;
78116;SDS011;69042;59.120;37.904;2023-04-25T11:17:33;14.20;;;6.22;;
78116;SDS011;69042;59.120;37.904;2023-04-25T11:20:00;18.73;;;6.05;;
78116;SDS011;69042;59.120;37.904;2023-04-25T11:22:27;18.20;;;5.80;;
78116;SDS011;69042;59.120;37.904;2023-04-25T11:24:54;15.18;;;5.75;;
78116;SDS011;69042;59.120;37.904;2023-04-25T11:27:20;14.38;;;6.20;;
78116;SDS011;69042;59.120;37.904;2023-04-25T11:29:47;15.95;;;6.75;;
78116;SDS011;69042;59.120;37.904;2023-04-25T11:32:17;11.57;;;7.43;;
78116;SDS011;69042;59.120;37.904;2023-04-25T11:34:44;11.50;;;5.78;;
78116;SDS011;69042;59.120;37.904;2023-04-25T11:37:13;16.83;;;6.43;;
78116;SDS011;69042;59.120;37.904;2023-04-25T11:39:43;13.43;;;5.63;;
78116;SDS011;69042;59.120;37.904;2023-04-25T11:42:11;15.95;;;6.45;;
78116;SDS011;69042;59.120;37.904;2023-04-25T11:44:38;12.60;;;6.50;;
78116;SDS011;69042;59.120;37.904;2023-04-25T11:47:05;10.73;;;5.90;;
78116;SDS011;69042;59.120;37.904;2023-04-25T11:49:31;12.43;;;6.10;;
78116;SDS011;69042;59.120;37.904;2023-04-25T11:51:58;13.27;;;6.03;;
78116;SDS011;69042;59.120;37.904;2023-04-25T11:54:24;13.43;;;5.55;;
78116;SDS011;69042;59.120;37.904;2023-04-25T11:56:50;9.13;;;5.05;;
78116;SDS011;69042;59.120;37.904;2023-04-25T11:59:17;8.65;;;5.00;;
78116;SDS011;69042;59.120;37.904;2023-04-25T12:01:49;9.40;;;5.05;;
78116;SDS011;69042;59.120;37.904;2023-04-25T12:04:17;10.93;;;5.55;;
78116;SDS011;69042;59.120;37.904;2023-04-25T12:06:52;9.40;;;5.13;;
78116;SDS011;69042;59.120;37.904;2023-04-25T12:09:20;11.38;;;4.85;;
78116;SDS011;69042;59.120;37.904;2023-04-25T12:12:00;12.23;;;5.28;;
78116;SDS011;69042;59.120;37.904;2023-04-25T12:14:30;14.63;;;5.47;;
78116;SDS011;69042;59.120;37.904;2023-04-25T12:17:01;11.20;;;5.13;;
78116;SDS011;69042;59.120;37.904;2023-04-25T12:19:33;10.85;;;5.10;;
78116;SDS011;69042;59.120;37.904;2023-04-25T12:22:08;7.97;;;4.82;;
78116;SDS011;69042;59.120;37.904;2023-04-25T12:24:48;14.43;;;5.75;;
78116;SDS011;69042;59.120;37.904;2023-04-25T12:27:15;9.38;;;5.22;;
78116;SDS011;69042;59.120;37.904;2023-04-25T12:29:51;10.05;;;4.60;;
78116;SDS011;69042;59.120;37.904;2023-04-25T12:32:19;12.75;;;5.25;;
78116;SDS011;69042;59.120;37.904;2023-04-25T12:34:45;17.48;;;5.93;;
78116;SDS011;69042;59.120;37.904;2023-04-25T12:37:11;10.13;;;5.13;;
78116;SDS011;69042;59.120;37.904;2023-04-25T12:39:38;7.97;;;4.80;;
78116;SDS011;69042;59.120;37.904;2023-04-25T12:42:05;8.32;;;5.45;;
78116;SDS011;69042;59.120;37.904;2023-04-25T12:44:34;10.07;;;4.75;;
78116;SDS011;69042;59.120;37.904;2023-04-25T12:47:00;10.80;;;4.50;;
78116;SDS011;69042;59.120;37.904;2023-04-25T12:49:26;8.43;;;4.55;;
78116;SDS011;69042;59.120;37.904;2023-04-25T12:51:52;9.00;;;4.50;;
78116;SDS011;69042;59.120;37.904;2023-04-25T12:54:19;7.20;;;4.50;;
78116;SDS011;69042;59.120;37.904;2023-04-25T12:56:45;8.60;;;4.55;;
78116;SDS011;69042;59.120;37.904;2023-04-25T12:59:11;8.88;;;4.80;;
78116;SDS011;69042;59.120;37.904;2023-04-25T13:01:38;8.45;;;5.07;;
78116;SDS011;69042;59.120;37.904;2023-04-25T13:04:04;9.65;;;4.90;;
78116;SDS011;69042;59.120;37.904;2023-04-25T13:06:30;8.88;;;4.70;;
78116;SDS011;69042;59.120;37.904;2023-04-25T13:08:57;9.07;;;4.82;;
78116;SDS011;69042;59.120;37.904;2023-04-25T13:11:23;12.20;;;4.70;;
78116;SDS011;69042;59.120;37.904;2023-04-25T13:13:49;6.75;;;4.22;;
78116;SDS011;69042;59.120;37.904;2023-04-25T13:16:15;5.97;;;4.30;;
78116;SDS011;69042;59.120;37.904;2023-04-25T13:18:45;13.90;;;4.85;;
78116;SDS011;69042;59.120;37.904;2023-04-25T13:21:13;9.88;;;4.72;;
78116;SDS011;69042;59.120;37.904;2023-04-25T13:23:40;11.38;;;4.75;;
78116;SDS011;69042;59.120;37.904;2023-04-25T13:26:08;7.20;;;4.20;;
78116;SDS011;69042;59.120;37.904;2023-04-25T13:28:34;14.05;;;4.60;;
78116;SDS011;69042;59.120;37.904;2023-04-25T13:31:00;15.10;;;5.10;;
78116;SDS011;69042;59.120;37.904;2023-04-25T13:33:27;10.35;;;4.72;;
78116;SDS011;69042;59.120;37.904;2023-04-25T13:35:53;10.27;;;4.50;;
78116;SDS011;69042;59.120;37.904;2023-04-25T13:38:21;8.73;;;4.40;;
78116;SDS011;69042;59.120;37.904;2023-04-25T13:40:48;11.18;;;4.88;;
78116;SDS011;69042;59.120;37.904;2023-04-25T13:45:41;15.00;;;4.63;;
78116;SDS011;69042;59.120;37.904;2023-04-25T13:48:08;8.05;;;4.35;;
78116;SDS011;69042;59.120;37.904;2023-04-25T13:50:34;9.57;;;4.35;;
78116;SDS011;69042;59.120;37.904;2023-04-25T13:53:01;14.63;;;4.22;;
78116;SDS011;69042;59.120;37.904;2023-04-25T13:55:27;11.70;;;4.22;;
78116;SDS011;69042;59.120;37.904;2023-04-25T13:57:53;10.70;;;4.50;;
78116;SDS011;69042;59.120;37.904;2023-04-25T14:00:19;15.63;;;4.60;;
78116;SDS011;69042;59.120;37.904;2023-04-25T14:02:46;11.68;;;4.22;;
78116;SDS011;69042;59.120;37.904;2023-04-25T14:05:13;7.82;;;4.05;;
78116;SDS011;69042;59.120;37.904;2023-04-25T14:07:39;9.82;;;4.40;;
78116;SDS011;69042;59.120;37.904;2023-04-25T14:10:05;9.00;;;3.70;;
78116;SDS011;69042;59.120;37.904;2023-04-25T14:12:32;7.78;;;3.58;;
78116;SDS011;69042;59.120;37.904;2023-04-25T14:14:59;10.18;;;3.85;;
78116;SDS011;69042;59.120;37.904;2023-04-25T14:17:25;10.05;;;4.00;;
78116;SDS011;69042;59.120;37.904;2023-04-25T14:19:52;14.32;;;4.30;;
78116;SDS011;69042;59.120;37.904;2023-04-25T14:22:18;7.82;;;3.67;;
78116;SDS011;69042;59.120;37.904;2023-04-25T14:24:45;9.50;;;3.70;;
78116;SDS011;69042;59.120;37.904;2023-04-25T14:27:11;9.43;;;3.75;;
78116;SDS011;69042;59.120;37.904;2023-04-25T14:29:38;12.82;;;4.50;;
78116;SDS011;69042;59.120;37.904;2023-04-25T14:32:04;11.00;;;4.22;;
78116;SDS011;69042;59.120;37.904;2023-04-25T14:34:31;9.32;;;4.63;;
78116;SDS011;69042;59.120;37.904;2023-04-25T14:36:57;14.38;;;4.55;;
78116;SDS011;69042;59.120;37.904;2023-04-25T14:39:24;15.00;;;4.47;;
78116;SDS011;69042;59.120;37.904;2023-04-25T14:41:50;20.27;;;5.05;;
78116;SDS011;69042;59.120;37.904;2023-04-25T14:44:16;23.80;;;5.28;;
78116;SDS011;69042;59.120;37.904;2023-04-25T14:46:43;15.30;;;4.90;;
78116;SDS011;69042;59.120;37.904;2023-04-25T14:49:09;16.60;;;5.20;;
78116;SDS011;69042;59.120;37.904;2023-04-25T14:51:36;16.60;;;4.85;;
78116;SDS011;69042;59.120;37.904;2023-04-25T14:54:02;15.25;;;4.65;;
78116;SDS011;69042;59.120;37.904;2023-04-25T14:56:28;14.50;;;5.10;;
78116;SDS011;69042;59.120;37.904;2023-04-25T14:58:55;19.73;;;5.55;;
78116;SDS011;69042;59.120;37.904;2023-04-25T15:01:21;12.77;;;4.50;;
78116;SDS011;69042;59.120;37.904;2023-04-25T15:03:47;9.57;;;4.03;;
78116;SDS011;69042;59.120;37.904;2023-04-25T15:06:13;14.40;;;4.80;;
78116;SDS011;69042;59.120;37.904;2023-04-25T15:08:40;12.65;;;4.57;;
78116;SDS011;69042;59.120;37.904;2023-04-25T15:11:06;10.77;;;5.00;;
78116;SDS011;69042;59.120;37.904;2023-04-25T15:13:32;11.85;;;4.88;;
78116;SDS011;69042;59.120;37.904;2023-04-25T15:16:00;12.82;;;5.00;;
78116;SDS011;69042;59.120;37.904;2023-04-25T15:18:26;11.93;;;4.63;;
78116;SDS011;69042;59.120;37.904;2023-04-25T15:20:53;9.15;;;4.38;;
78116;SDS011;69042;59.120;37.904;2023-04-25T15:23:19;10.75;;;4.00;;
78116;SDS011;69042;59.120;37.904;2023-04-25T15:25:46;10.45;;;4.50;;
78116;SDS011;69042;59.120;37.904;2023-04-25T15:28:12;6.90;;;4.10;;
78116;SDS011;69042;59.120;37.904;2023-04-25T15:30:42;7.75;;;4.00;;
78116;SDS011;69042;59.120;37.904;2023-04-25T15:33:09;15.52;;;5.57;;
78116;SDS011;69042;59.120;37.904;2023-04-25T15:35:35;9.10;;;5.32;;
78116;SDS011;69042;59.120;37.904;2023-04-25T15:38:01;11.93;;;4.90;;
78116;SDS011;69042;59.120;37.904;2023-04-25T15:40:27;11.20;;;4.10;;
78116;SDS011;69042;59.120;37.904;2023-04-25T15:42:53;10.88;;;4.45;;
78116;SDS011;69042;59.120;37.904;2023-04-25T15:45:21;13.52;;;5.15;;
78116;SDS011;69042;59.120;37.904;2023-04-25T15:47:50;11.45;;;4.80;;
78116;SDS011;69042;59.120;37.904;2023-04-25T15:50:18;10.60;;;4.63;;
78116;SDS011;69042;59.120;37.904;2023-04-25T15:52:47;18.42;;;4.60;;
78116;SDS011;69042;59.120;37.904;2023-04-25T15:55:15;11.43;;;4.22;;
78116;SDS011;69042;59.120;37.904;2023-04-25T15:57:42;9.57;;;4.28;;
78116;SDS011;69042;59.120;37.904;2023-04-25T16:00:08;10.55;;;4.90;;
78116;SDS011;69042;59.120;37.904;2023-04-25T16:02:39;13.77;;;5.07;;
78116;SDS011;69042;59.120;37.904;2023-04-25T16:05:07;11.40;;;4.55;;
78116;SDS011;69042;59.120;37.904;2023-04-25T16:07:36;11.27;;;4.80;;
78116;SDS011;69042;59.120;37.904;2023-04-25T16:10:07;15.57;;;5.53;;
78116;SDS011;69042;59.120;37.904;2023-04-25T16:12:34;11.52;;;5.43;;